createdAt,value
2019-05-07T00:00:32.937Z,1003.83
2019-05-07T00:01:34.011Z,1003.84
2019-05-07T00:02:32.240Z,1003.82
2019-05-07T00:03:32.814Z,1003.81
2019-05-07T00:04:33.218Z,1003.81
2019-05-07T00:05:33.128Z,1003.80
2019-05-07T00:06:32.626Z,1003.81
2019-05-07T00:07:32.187Z,1003.77
2019-05-07T00:08:32.316Z,1003.78
2019-05-07T00:09:32.419Z,1003.77
2019-05-07T00:10:33.184Z,1003.74
2019-05-07T00:11:33.095Z,1003.73
2019-05-07T00:12:32.403Z,1003.71
2019-05-07T00:13:33.370Z,1003.75
2019-05-07T00:14:34.612Z,1003.70
2019-05-07T00:15:32.915Z,1003.70
2019-05-07T00:16:32.563Z,1003.70
2019-05-07T00:17:32.395Z,1003.69
2019-05-07T00:18:32.465Z,1003.75
2019-05-07T00:19:32.561Z,1003.76
2019-05-07T00:20:32.856Z,1003.72
2019-05-07T00:21:32.726Z,1003.71
2019-05-07T00:22:32.724Z,1003.73
2019-05-07T00:23:32.679Z,1003.73
2019-05-07T00:24:33.181Z,1003.66
2019-05-07T00:25:32.982Z,1003.70
2019-05-07T00:26:32.444Z,1003.65
2019-05-07T00:27:32.466Z,1003.63
2019-05-07T00:28:32.648Z,1003.64
2019-05-07T00:29:32.498Z,1003.63
2019-05-07T00:30:33.224Z,1003.61
2019-05-07T00:31:32.672Z,1003.62
2019-05-07T00:32:32.821Z,1003.63
2019-05-07T00:33:32.575Z,1003.60
2019-05-07T00:34:32.846Z,1003.63
2019-05-07T00:35:32.604Z,1003.61
2019-05-07T00:36:32.620Z,1003.60
2019-05-07T00:37:32.639Z,1003.63
2019-05-07T00:38:32.654Z,1003.60
2019-05-07T00:39:32.890Z,1003.61
2019-05-07T00:40:32.690Z,1003.62
2019-05-07T00:41:32.707Z,1003.63
2019-05-07T00:42:32.849Z,1003.67
2019-05-07T00:43:32.744Z,1003.71
2019-05-07T00:44:32.874Z,1003.66
2019-05-07T00:45:32.775Z,1003.66
2019-05-07T00:46:32.795Z,1003.69
2019-05-07T00:47:33.121Z,1003.69
2019-05-07T00:48:33.090Z,1003.72
2019-05-07T00:49:33.133Z,1003.72
2019-05-07T00:50:33.233Z,1003.71
2019-05-07T00:51:33.538Z,1003.70
2019-05-07T00:52:33.503Z,1003.75
2019-05-07T00:53:32.999Z,1003.74
2019-05-07T00:54:32.938Z,1003.75
2019-05-07T00:55:32.951Z,1003.71
2019-05-07T00:56:33.330Z,1003.70
2019-05-07T00:57:32.986Z,1003.71
2019-05-07T00:58:33.001Z,1003.72
2019-05-07T00:59:33.025Z,1003.65
2019-05-07T01:00:33.376Z,1003.69
2019-05-07T01:01:33.051Z,1003.67
2019-05-07T01:02:33.074Z,1003.65
2019-05-07T01:03:33.089Z,1003.74
2019-05-07T01:04:33.237Z,1003.70
2019-05-07T01:05:33.127Z,1003.70
2019-05-07T01:06:33.283Z,1003.69
2019-05-07T01:07:33.155Z,1003.69
2019-05-07T01:08:33.176Z,1003.72
2019-05-07T01:09:33.191Z,1003.69
2019-05-07T01:10:33.213Z,1003.71
2019-05-07T01:11:33.656Z,1003.70
2019-05-07T01:12:33.243Z,1003.72
2019-05-07T01:13:33.257Z,1003.74
2019-05-07T01:14:33.280Z,1003.73
2019-05-07T01:15:34.730Z,1003.73
2019-05-07T01:16:33.311Z,1003.71
2019-05-07T01:17:33.602Z,1003.74
2019-05-07T01:18:33.345Z,1003.71
2019-05-07T01:19:33.368Z,1003.71
2019-05-07T01:20:33.379Z,1003.71
2019-05-07T01:21:33.393Z,1003.68
2019-05-07T01:22:33.412Z,1003.74
2019-05-07T01:23:33.430Z,1003.72
2019-05-07T01:24:33.445Z,1003.73
2019-05-07T01:25:33.461Z,1003.73
2019-05-07T01:26:33.480Z,1003.74
2019-05-07T01:27:33.498Z,1003.73
2019-05-07T01:28:33.516Z,1003.76
2019-05-07T01:29:33.532Z,1003.72
2019-05-07T01:30:33.549Z,1003.76
2019-05-07T01:31:33.566Z,1003.78
2019-05-07T01:32:33.582Z,1003.75
2019-05-07T01:33:33.599Z,1003.76
2019-05-07T01:34:33.616Z,1003.74
2019-05-07T01:35:33.633Z,1003.71
2019-05-07T01:36:33.654Z,1003.77
2019-05-07T01:37:33.671Z,1003.78
2019-05-07T01:38:33.687Z,1003.78
2019-05-07T01:39:33.702Z,1003.82
2019-05-07T01:40:33.720Z,1003.77
2019-05-07T01:41:33.739Z,1003.81
2019-05-07T01:42:36.494Z,1003.81
2019-05-07T01:43:33.770Z,1003.80
2019-05-07T01:44:33.789Z,1003.82
2019-05-07T01:45:45.459Z,1003.84
2019-05-07T01:46:33.821Z,1003.81
2019-05-07T01:47:33.840Z,1003.84
2019-05-07T01:48:33.859Z,1003.85
2019-05-07T01:49:33.872Z,1003.83
2019-05-07T01:50:33.891Z,1003.86
2019-05-07T01:51:33.915Z,1003.86
2019-05-07T01:52:33.927Z,1003.84
2019-05-07T01:53:33.942Z,1003.83
2019-05-07T01:54:33.960Z,1003.84
2019-05-07T01:55:33.996Z,1003.83
2019-05-07T01:56:34.000Z,1003.84
2019-05-07T01:57:34.013Z,1003.83
2019-05-07T01:58:34.040Z,1003.83
2019-05-07T01:59:34.044Z,1003.81
2019-05-07T02:00:34.062Z,1003.84
2019-05-07T02:01:35.873Z,1003.83
2019-05-07T02:02:34.097Z,1003.85
2019-05-07T02:03:34.115Z,1003.86
2019-05-07T02:04:34.130Z,1003.86
2019-05-07T02:05:34.150Z,1003.88
2019-05-07T02:06:34.166Z,1003.85
2019-05-07T02:07:34.184Z,1003.87
2019-05-07T02:08:34.205Z,1003.85
2019-05-07T02:09:34.234Z,1003.86
2019-05-07T02:10:34.231Z,1003.88
2019-05-07T02:11:34.249Z,1003.91
2019-05-07T02:12:34.268Z,1003.89
2019-05-07T02:13:34.285Z,1003.90
2019-05-07T02:14:34.299Z,1003.87
2019-05-07T02:15:34.318Z,1003.85
2019-05-07T02:16:34.334Z,1003.91
2019-05-07T02:17:34.349Z,1003.87
2019-05-07T02:18:34.367Z,1003.87
2019-05-07T02:19:34.387Z,1003.91
2019-05-07T02:20:34.400Z,1003.90
2019-05-07T02:21:34.421Z,1003.88
2019-05-07T02:22:34.437Z,1003.89
2019-05-07T02:23:34.455Z,1003.85
2019-05-07T02:24:34.472Z,1003.87
2019-05-07T02:25:34.489Z,1003.87
2019-05-07T02:26:34.505Z,1003.85
2019-05-07T02:27:34.519Z,1003.91
2019-05-07T02:28:34.540Z,1003.93
2019-05-07T02:29:34.553Z,1003.92
2019-05-07T02:30:35.379Z,1003.91
2019-05-07T02:31:34.593Z,1003.91
2019-05-07T02:32:34.603Z,1003.92
2019-05-07T02:33:35.261Z,1003.93
2019-05-07T02:34:34.713Z,1003.94
2019-05-07T02:35:34.662Z,1003.95
2019-05-07T02:36:34.675Z,1003.91
2019-05-07T02:37:47.070Z,1003.91
2019-05-07T02:38:34.709Z,1003.96
2019-05-07T02:39:34.731Z,1003.92
2019-05-07T02:40:34.746Z,1003.88
2019-05-07T02:41:34.758Z,1003.92
2019-05-07T02:42:34.790Z,1003.91
2019-05-07T02:43:34.793Z,1003.92
2019-05-07T02:44:34.818Z,1003.94
2019-05-07T02:45:34.829Z,1003.97
2019-05-07T02:46:36.331Z,1003.97
2019-05-07T02:47:34.867Z,1004.04
2019-05-07T02:48:34.875Z,1004.01
2019-05-07T02:49:34.894Z,1004.02
2019-05-07T02:50:34.917Z,1004.03
2019-05-07T02:51:34.928Z,1004.02
2019-05-07T02:52:34.947Z,1004.02
2019-05-07T02:53:34.965Z,1004.02
2019-05-07T02:54:34.977Z,1004.05
2019-05-07T02:55:35.003Z,1004.02
2019-05-07T02:56:35.038Z,1004.03
2019-05-07T02:57:35.030Z,1004.07
2019-05-07T02:58:35.049Z,1004.03
2019-05-07T02:59:35.064Z,1004.05
2019-05-07T03:00:35.084Z,1004.01
2019-05-07T03:01:35.100Z,1004.03
2019-05-07T03:02:35.120Z,1004.02
2019-05-07T03:03:35.130Z,1004.03
2019-05-07T03:04:35.144Z,1004.02
2019-05-07T03:05:35.338Z,1004.03
2019-05-07T03:06:35.185Z,1004.03
2019-05-07T03:07:35.194Z,1004.03
2019-05-07T03:08:35.214Z,1004.05
2019-05-07T03:09:35.228Z,1004.02
2019-05-07T03:10:35.257Z,1004.02
2019-05-07T03:11:35.262Z,1004.03
2019-05-07T03:12:35.284Z,1004.04
2019-05-07T03:13:35.298Z,1004.06
2019-05-07T03:14:35.315Z,1004.05
2019-05-07T03:15:35.333Z,1004.06
2019-05-07T03:16:43.780Z,1004.08
2019-05-07T03:17:35.367Z,1004.04
2019-05-07T03:18:35.380Z,1004.04
2019-05-07T03:19:35.403Z,1004.05
2019-05-07T03:20:35.414Z,1004.07
2019-05-07T03:21:35.437Z,1004.08
2019-05-07T03:22:35.450Z,1004.06
2019-05-07T03:23:35.461Z,1004.05
2019-05-07T03:24:35.478Z,1004.09
2019-05-07T03:25:35.495Z,1004.05
2019-05-07T03:26:35.513Z,1004.08
2019-05-07T03:27:35.526Z,1004.05
2019-05-07T03:28:35.547Z,1004.05
2019-05-07T03:29:35.560Z,1004.03
2019-05-07T03:30:36.376Z,1004.05
2019-05-07T03:31:36.720Z,1004.07
2019-05-07T03:32:39.615Z,1004.05
2019-05-07T03:33:36.941Z,1004.04
2019-05-07T03:34:37.295Z,1004.08
2019-05-07T03:35:37.658Z,1004.08
2019-05-07T03:36:35.679Z,1004.08
2019-05-07T03:37:36.552Z,1004.07
2019-05-07T03:38:35.706Z,1004.06
2019-05-07T03:39:35.724Z,1004.08
2019-05-07T03:40:35.740Z,1004.07
2019-05-07T03:41:35.752Z,1004.10
2019-05-07T03:42:35.772Z,1004.09
2019-05-07T03:43:35.785Z,1004.08
2019-05-07T03:44:35.805Z,1004.13
2019-05-07T03:45:35.822Z,1004.10
2019-05-07T03:46:52.792Z,1004.10
2019-05-07T03:47:35.857Z,1004.11
2019-05-07T03:48:35.889Z,1004.09
2019-05-07T03:49:35.885Z,1004.06
2019-05-07T03:50:35.900Z,1004.12
2019-05-07T03:51:35.918Z,1004.10
2019-05-07T03:52:35.931Z,1004.11
2019-05-07T03:53:35.955Z,1004.12
2019-05-07T03:54:35.968Z,1004.13
2019-05-07T03:55:35.982Z,1004.13
2019-05-07T03:56:36.000Z,1004.12
2019-05-07T03:57:36.013Z,1004.15
2019-05-07T03:58:36.034Z,1004.15
2019-05-07T03:59:36.052Z,1004.18
2019-05-07T04:00:36.065Z,1004.13
2019-05-07T04:01:36.078Z,1004.15
2019-05-07T04:02:36.094Z,1004.16
2019-05-07T04:03:36.117Z,1004.19
2019-05-07T04:04:36.126Z,1004.19
2019-05-07T04:05:36.141Z,1004.17
2019-05-07T04:06:36.168Z,1004.19
2019-05-07T04:07:36.174Z,1004.24
2019-05-07T04:08:36.192Z,1004.22
2019-05-07T04:09:36.209Z,1004.22
2019-05-07T04:10:36.226Z,1004.23
2019-05-07T04:11:36.247Z,1004.25
2019-05-07T04:12:36.254Z,1004.23
2019-05-07T04:13:36.302Z,1004.27
2019-05-07T04:14:36.289Z,1004.26
2019-05-07T04:15:36.302Z,1004.27
2019-05-07T04:16:36.322Z,1004.30
2019-05-07T04:17:36.334Z,1004.31
2019-05-07T04:18:36.348Z,1004.34
2019-05-07T04:19:36.379Z,1004.32
2019-05-07T04:20:36.386Z,1004.34
2019-05-07T04:21:36.416Z,1004.33
2019-05-07T04:22:36.412Z,1004.40
2019-05-07T04:23:36.449Z,1004.38
2019-05-07T04:24:36.450Z,1004.43
2019-05-07T04:25:36.471Z,1004.41
2019-05-07T04:26:36.486Z,1004.42
2019-05-07T04:27:36.535Z,1004.42
2019-05-07T04:28:36.516Z,1004.44
2019-05-07T04:29:36.530Z,1004.47
2019-05-07T04:30:36.547Z,1004.46
2019-05-07T04:31:36.565Z,1004.45
2019-05-07T04:32:36.572Z,1004.50
2019-05-07T04:33:36.596Z,1004.51
2019-05-07T04:34:36.617Z,1004.53
2019-05-07T04:35:36.627Z,1004.56
2019-05-07T04:36:36.639Z,1004.52
2019-05-07T04:37:36.809Z,1004.58
2019-05-07T04:38:36.670Z,1004.59
2019-05-07T04:39:36.688Z,1004.55
2019-05-07T04:40:36.705Z,1004.51
2019-05-07T04:41:36.720Z,1004.56
2019-05-07T04:42:36.735Z,1004.53
2019-05-07T04:43:36.777Z,1004.55
2019-05-07T04:44:36.770Z,1004.54
2019-05-07T04:45:36.788Z,1004.57
2019-05-07T04:46:36.819Z,1004.56
2019-05-07T04:47:42.886Z,1004.51
2019-05-07T04:48:36.832Z,1004.56
2019-05-07T04:49:36.851Z,1004.62
2019-05-07T04:50:42.988Z,1004.61
2019-05-07T04:51:36.890Z,1004.77
2019-05-07T04:52:36.935Z,1004.96
2019-05-07T04:53:36.914Z,1004.94
2019-05-07T04:54:36.932Z,1005.00
2019-05-07T04:55:36.950Z,1005.06
2019-05-07T04:56:36.968Z,1005.14
2019-05-07T04:57:36.987Z,1005.12
2019-05-07T04:58:37.002Z,1005.14
2019-05-07T04:59:37.023Z,1005.17
2019-05-07T05:00:37.048Z,1005.16
2019-05-07T05:01:37.058Z,1005.22
2019-05-07T05:02:37.083Z,1005.23
2019-05-07T05:03:39.298Z,1005.26
2019-05-07T05:04:37.118Z,1005.30
2019-05-07T05:05:37.132Z,1005.31
2019-05-07T05:06:37.150Z,1005.32
2019-05-07T05:07:37.170Z,1005.34
2019-05-07T05:08:37.191Z,1005.35
2019-05-07T05:09:37.218Z,1005.35
2019-05-07T05:10:37.236Z,1005.39
2019-05-07T05:11:37.253Z,1005.42
2019-05-07T05:12:37.269Z,1005.46
2019-05-07T05:13:37.295Z,1005.53
2019-05-07T05:14:37.313Z,1005.50
2019-05-07T05:15:37.332Z,1005.48
2019-05-07T05:16:37.357Z,1005.59
2019-05-07T05:17:49.698Z,1005.64
2019-05-07T05:18:37.398Z,1005.65
2019-05-07T05:19:37.418Z,1005.65
2019-05-07T05:20:37.438Z,1005.71
2019-05-07T05:21:37.468Z,1005.79
2019-05-07T05:22:37.482Z,1005.85
2019-05-07T05:23:37.504Z,1005.84
2019-05-07T05:24:37.525Z,1005.88
2019-05-07T05:25:37.548Z,1005.92
2019-05-07T05:26:37.572Z,1006.00
2019-05-07T05:27:37.593Z,1006.03
2019-05-07T05:28:37.613Z,1006.14
2019-05-07T05:29:37.636Z,1006.19
2019-05-07T05:30:37.661Z,1006.21
2019-05-07T05:31:37.682Z,1006.27
2019-05-07T05:32:37.708Z,1006.36
2019-05-07T05:33:37.732Z,1006.41
2019-05-07T05:34:37.752Z,1006.49
2019-05-07T05:35:37.777Z,1006.50
2019-05-07T05:36:37.797Z,1006.51
2019-05-07T05:37:37.823Z,1006.51
2019-05-07T05:38:37.847Z,1006.60
2019-05-07T05:39:37.871Z,1006.60
2019-05-07T05:40:37.940Z,1006.76
2019-05-07T05:41:38.131Z,1006.71
2019-05-07T05:42:38.033Z,1006.78
2019-05-07T05:43:38.043Z,1006.78
2019-05-07T05:44:38.037Z,1006.75
2019-05-07T05:45:38.163Z,1006.70
2019-05-07T05:46:38.056Z,1006.34
2019-05-07T05:47:38.072Z,1006.63
2019-05-07T05:48:38.094Z,1006.69
2019-05-07T05:49:38.106Z,1006.51
2019-05-07T05:50:38.151Z,1006.56
2019-05-07T05:51:38.162Z,1007.16
2019-05-07T05:52:38.183Z,1007.22
2019-05-07T05:53:38.201Z,1007.33
2019-05-07T05:54:38.240Z,1007.44
2019-05-07T05:55:38.249Z,1007.38
2019-05-07T05:56:38.271Z,1007.44
2019-05-07T05:57:38.302Z,1007.66
2019-05-07T05:58:38.326Z,1007.56
2019-05-07T05:59:49.003Z,1007.03
2019-05-07T06:00:38.372Z,1007.25
2019-05-07T06:01:38.394Z,1007.61
2019-05-07T06:02:38.416Z,1007.22
2019-05-07T06:03:38.447Z,1007.17
2019-05-07T06:04:38.470Z,1007.28
2019-05-07T06:05:38.492Z,1007.30
2019-05-07T06:06:38.519Z,1007.23
2019-05-07T06:07:38.540Z,1007.22
2019-05-07T06:08:38.562Z,1007.79
2019-05-07T06:09:38.587Z,1005.95
2019-05-07T06:10:38.613Z,1005.76
2019-05-07T06:11:38.635Z,1005.76
2019-05-07T06:12:38.660Z,1005.34
2019-05-07T06:13:38.685Z,1005.28
2019-05-07T06:14:38.712Z,1005.09
2019-05-07T06:15:38.731Z,1005.14
2019-05-07T06:16:38.762Z,1005.04
2019-05-07T06:17:38.778Z,1004.96
2019-05-07T06:18:38.805Z,1005.23
2019-05-07T06:19:38.825Z,1005.17
2019-05-07T06:20:38.848Z,1005.12
2019-05-07T06:21:38.876Z,1005.25
2019-05-07T06:22:38.897Z,1005.19
2019-05-07T06:23:38.913Z,1005.12
2019-05-07T06:24:38.937Z,1005.20
2019-05-07T06:25:38.958Z,1005.22
2019-05-07T06:26:38.982Z,1005.86
2019-05-07T06:27:39.006Z,1005.44
2019-05-07T06:28:39.025Z,1006.08
2019-05-07T06:29:39.048Z,1005.81
2019-05-07T06:30:39.068Z,1005.29
2019-05-07T06:31:39.093Z,1005.27
2019-05-07T06:32:39.108Z,1005.38
2019-05-07T06:33:39.131Z,1005.65
2019-05-07T06:34:41.663Z,1005.58
2019-05-07T06:35:39.178Z,1005.43
2019-05-07T06:36:39.194Z,1005.48
2019-05-07T06:37:39.217Z,1008.51
2019-05-07T06:38:39.238Z,1006.43
2019-05-07T06:39:39.261Z,1006.03
2019-05-07T06:40:39.287Z,1009.85
2019-05-07T06:41:39.308Z,1010.14
2019-05-07T06:42:39.324Z,1009.39
2019-05-07T06:43:39.345Z,1009.04
2019-05-07T06:44:39.368Z,1009.07
2019-05-07T06:45:39.433Z,1009.58
2019-05-07T06:46:41.837Z,1009.76
2019-05-07T06:47:39.441Z,1009.69
2019-05-07T06:48:43.572Z,1009.39
2019-05-07T06:49:39.478Z,1009.18
2019-05-07T06:50:39.535Z,1008.40
2019-05-07T06:51:41.861Z,1008.94
2019-05-07T06:52:39.549Z,1009.12
2019-05-07T06:53:39.569Z,1009.06
2019-05-07T06:54:39.595Z,1007.14
2019-05-07T06:55:39.615Z,1008.70
2019-05-07T06:56:42.007Z,1009.40
2019-05-07T06:57:39.661Z,1009.39
2019-05-07T06:58:41.750Z,1007.65
2019-05-07T06:59:39.710Z,1005.90
2019-05-07T07:00:42.020Z,1009.93
2019-05-07T07:01:42.179Z,1009.61
2019-05-07T07:02:41.824Z,1007.45
2019-05-07T07:03:41.879Z,1005.98
2019-05-07T07:04:39.826Z,1005.47
2019-05-07T07:05:42.347Z,1005.26
2019-05-07T07:06:39.874Z,1005.15
2019-05-07T07:07:41.971Z,1005.42
2019-05-07T07:08:41.890Z,1005.28
2019-05-07T07:09:42.299Z,1005.26
2019-05-07T07:10:39.966Z,1005.67
2019-05-07T07:11:42.296Z,1005.49
2019-05-07T07:12:41.880Z,1005.52
2019-05-07T07:13:40.046Z,1006.63
2019-05-07T07:14:42.225Z,1005.94
2019-05-07T07:15:40.080Z,1005.31
2019-05-07T07:16:42.069Z,1005.14
2019-05-07T07:17:41.889Z,1005.04
2019-05-07T07:18:51.096Z,1005.03
2019-05-07T07:19:40.178Z,1004.99
2019-05-07T07:20:40.195Z,1005.04
2019-05-07T07:21:42.148Z,1005.69
2019-05-07T07:22:42.446Z,1004.96
2019-05-07T07:23:40.258Z,1004.85
2019-05-07T07:24:42.287Z,1004.85
2019-05-07T07:25:40.304Z,1004.84
2019-05-07T07:26:42.190Z,1004.84
2019-05-07T07:27:42.713Z,1004.80
2019-05-07T07:28:40.371Z,1004.81
2019-05-07T07:29:41.937Z,1004.80
2019-05-07T07:30:42.056Z,1004.81
2019-05-07T07:31:42.470Z,1004.80
2019-05-07T07:32:42.423Z,1004.81
2019-05-07T07:33:40.474Z,1004.79
2019-05-07T07:34:42.599Z,1004.79
2019-05-07T07:35:42.740Z,1004.75
2019-05-07T07:36:42.357Z,1004.74
2019-05-07T07:37:42.838Z,1004.75
2019-05-07T07:38:42.072Z,1004.75
2019-05-07T07:39:42.867Z,1004.77
2019-05-07T07:40:42.221Z,1004.77
2019-05-07T07:41:42.097Z,1004.73
2019-05-07T07:42:42.628Z,1004.77
2019-05-07T07:43:41.959Z,1004.81
2019-05-07T07:44:42.582Z,1004.77
2019-05-07T07:45:42.000Z,1004.74
2019-05-07T07:46:42.443Z,1004.78
2019-05-07T07:47:42.239Z,1004.74
2019-05-07T07:48:43.341Z,1004.76
2019-05-07T07:49:42.063Z,1004.74
2019-05-07T07:50:42.111Z,1004.77
2019-05-07T07:51:44.441Z,1004.73
2019-05-07T07:52:42.048Z,1004.72
2019-05-07T07:53:42.506Z,1004.67
2019-05-07T07:54:42.876Z,1004.66
2019-05-07T07:55:42.591Z,1004.67
2019-05-07T07:56:50.245Z,1004.64
2019-05-07T07:57:42.725Z,1004.65
2019-05-07T07:58:41.950Z,1004.62
2019-05-07T07:59:42.156Z,1004.63
2019-05-07T08:00:42.853Z,1004.62
2019-05-07T08:01:42.097Z,1004.63
2019-05-07T08:02:42.431Z,1004.56
2019-05-07T08:03:41.804Z,1004.65
2019-05-07T08:04:42.594Z,1004.62
2019-05-07T08:05:42.724Z,1004.65
2019-05-07T08:06:42.077Z,1004.62
2019-05-07T08:07:42.615Z,1004.58
2019-05-07T08:08:42.441Z,1004.59
2019-05-07T08:09:42.785Z,1004.59
2019-05-07T08:10:42.540Z,1004.61
2019-05-07T08:11:42.558Z,1004.60
2019-05-07T08:12:42.198Z,1004.67
2019-05-07T08:13:42.485Z,1004.63
2019-05-07T08:14:42.668Z,1004.66
2019-05-07T08:15:42.968Z,1004.62
2019-05-07T08:16:42.941Z,1004.62
2019-05-07T08:17:41.885Z,1004.63
2019-05-07T08:18:43.611Z,1004.60
2019-05-07T08:19:42.931Z,1004.64
2019-05-07T08:20:43.003Z,1004.65
2019-05-07T08:21:42.044Z,1004.63
2019-05-07T08:22:42.281Z,1004.67
2019-05-07T08:23:42.379Z,1004.69
2019-05-07T08:24:42.660Z,1004.68
2019-05-07T08:25:42.603Z,1004.69
2019-05-07T08:26:42.850Z,1004.72
2019-05-07T08:27:42.058Z,1004.73
2019-05-07T08:28:41.976Z,1004.74
2019-05-07T08:29:43.013Z,1004.73
2019-05-07T08:30:42.088Z,1004.73
2019-05-07T08:31:42.475Z,1004.70
2019-05-07T08:32:42.591Z,1004.70
2019-05-07T08:33:42.598Z,1004.66
2019-05-07T08:34:42.813Z,1004.65
2019-05-07T08:35:41.995Z,1004.61
2019-05-07T08:36:42.122Z,1004.60
2019-05-07T08:37:42.730Z,1004.67
2019-05-07T08:38:42.619Z,1004.66
2019-05-07T08:39:42.890Z,1004.67
2019-05-07T08:40:41.948Z,1004.64
2019-05-07T08:41:42.280Z,1004.59
2019-05-07T08:42:41.973Z,1004.62
2019-05-07T08:43:42.774Z,1004.62
2019-05-07T08:44:42.954Z,1004.63
2019-05-07T08:45:43.212Z,1004.58
2019-05-07T08:46:42.226Z,1004.58
2019-05-07T08:47:42.558Z,1004.56
2019-05-07T08:48:42.495Z,1004.55
2019-05-07T08:49:43.357Z,1004.57
2019-05-07T08:50:42.057Z,1004.55
2019-05-07T08:51:42.614Z,1004.57
2019-05-07T08:52:42.126Z,1004.56
2019-05-07T08:53:42.325Z,1004.55
2019-05-07T08:54:42.837Z,1004.46
2019-05-07T08:55:42.480Z,1004.42
2019-05-07T08:56:42.614Z,1004.41
2019-05-07T08:57:42.201Z,1004.43
2019-05-07T08:58:42.223Z,1004.42
2019-05-07T08:59:46.734Z,1004.35
2019-05-07T09:00:42.261Z,1004.37
2019-05-07T09:01:43.267Z,1004.29
2019-05-07T09:02:42.306Z,1004.26
2019-05-07T09:03:42.917Z,1004.22
2019-05-07T09:04:42.347Z,1004.24
2019-05-07T09:05:42.645Z,1004.18
2019-05-07T09:06:43.045Z,1004.20
2019-05-07T09:07:42.625Z,1004.18
2019-05-07T09:08:43.628Z,1004.13
2019-05-07T09:09:42.800Z,1004.17
2019-05-07T09:10:42.470Z,1004.16
2019-05-07T09:11:42.724Z,1004.19
2019-05-07T09:12:42.919Z,1004.15
2019-05-07T09:13:42.530Z,1004.14
2019-05-07T09:14:42.797Z,1004.10
2019-05-07T09:15:42.614Z,1004.20
2019-05-07T09:16:42.918Z,1004.19
2019-05-07T09:17:42.609Z,1004.22
2019-05-07T09:18:42.657Z,1004.19
2019-05-07T09:19:50.876Z,1004.18
2019-05-07T09:20:42.668Z,1004.16
2019-05-07T09:21:43.033Z,1004.17
2019-05-07T09:22:42.909Z,1004.15
2019-05-07T09:23:42.737Z,1004.14
2019-05-07T09:24:42.750Z,1004.15
2019-05-07T09:25:42.771Z,1004.16
2019-05-07T09:26:42.787Z,1004.15
2019-05-07T09:27:42.809Z,1004.14
2019-05-07T09:28:42.850Z,1004.14
2019-05-07T09:29:42.850Z,1004.14
2019-05-07T09:30:42.867Z,1004.17
2019-05-07T09:31:42.889Z,1004.15
2019-05-07T09:32:42.906Z,1004.16
2019-05-07T09:33:42.927Z,1004.19
2019-05-07T09:34:42.949Z,1004.18
2019-05-07T09:35:42.971Z,1004.18
2019-05-07T09:36:42.988Z,1004.18
2019-05-07T09:37:43.005Z,1004.22
2019-05-07T09:38:55.829Z,1004.21
2019-05-07T09:39:43.055Z,1004.24
2019-05-07T09:40:43.069Z,1004.24
2019-05-07T09:41:43.084Z,1004.23
2019-05-07T09:42:43.108Z,1004.22
2019-05-07T09:43:43.126Z,1004.25
2019-05-07T09:44:43.146Z,1004.23
2019-05-07T09:45:43.168Z,1004.28
2019-05-07T09:46:46.401Z,1004.21
2019-05-07T09:47:43.209Z,1004.23
2019-05-07T09:48:43.229Z,1004.22
2019-05-07T09:49:43.254Z,1004.22
2019-05-07T09:50:43.269Z,1004.20
2019-05-07T09:51:43.288Z,1004.20
2019-05-07T09:52:43.313Z,1004.22
2019-05-07T09:53:43.337Z,1004.22
2019-05-07T09:54:43.353Z,1004.25
2019-05-07T09:55:43.372Z,1004.23
2019-05-07T09:56:43.392Z,1004.24
2019-05-07T09:57:43.416Z,1004.28
2019-05-07T09:58:43.435Z,1004.27
2019-05-07T09:59:43.454Z,1004.20
2019-05-07T10:00:43.478Z,1004.16
2019-05-07T10:01:43.497Z,1004.15
2019-05-07T10:02:43.515Z,1004.16
2019-05-07T10:03:43.538Z,1004.13
2019-05-07T10:04:43.556Z,1004.12
2019-05-07T10:05:43.581Z,1004.14
2019-05-07T10:06:43.601Z,1004.11
2019-05-07T10:07:43.621Z,1004.11
2019-05-07T10:08:43.642Z,1004.07
2019-05-07T10:09:43.661Z,1004.05
2019-05-07T10:10:43.688Z,1004.05
2019-05-07T10:11:43.836Z,1004.04
2019-05-07T10:12:43.920Z,1004.03
2019-05-07T10:13:43.814Z,1004.05
2019-05-07T10:14:43.941Z,1004.06
2019-05-07T10:15:43.864Z,1004.04
2019-05-07T10:16:43.827Z,1004.01
2019-05-07T10:17:43.958Z,1004.05
2019-05-07T10:18:43.892Z,1004.03
2019-05-07T10:19:43.888Z,1004.01
2019-05-07T10:20:43.894Z,1004.03
2019-05-07T10:21:43.929Z,1003.97
2019-05-07T10:22:43.935Z,1003.98
2019-05-07T10:23:43.961Z,1004.03
2019-05-07T10:24:43.988Z,1004.01
2019-05-07T10:25:44.017Z,1004.03
2019-05-07T10:26:44.029Z,1004.01
2019-05-07T10:27:44.045Z,1004.01
2019-05-07T10:28:44.064Z,1003.98
2019-05-07T10:29:44.087Z,1003.95
2019-05-07T10:30:44.105Z,1003.92
2019-05-07T10:31:44.125Z,1003.90
2019-05-07T10:32:44.147Z,1003.91
2019-05-07T10:33:44.170Z,1003.90
2019-05-07T10:34:44.197Z,1003.92
2019-05-07T10:35:44.216Z,1003.90
2019-05-07T10:36:44.229Z,1003.92
2019-05-07T10:37:44.251Z,1003.89
2019-05-07T10:38:44.274Z,1003.85
2019-05-07T10:39:44.298Z,1003.87
2019-05-07T10:40:44.315Z,1003.80
2019-05-07T10:41:44.338Z,1003.87
2019-05-07T10:42:44.362Z,1003.83
2019-05-07T10:43:44.376Z,1003.88
2019-05-07T10:44:44.397Z,1003.86
2019-05-07T10:45:44.420Z,1003.86
2019-05-07T10:46:44.442Z,1003.87
2019-05-07T10:47:44.464Z,1003.84
2019-05-07T10:48:44.484Z,1003.84
2019-05-07T10:49:44.507Z,1003.81
2019-05-07T10:50:44.533Z,1003.89
2019-05-07T10:51:44.549Z,1003.83
2019-05-07T10:52:44.568Z,1003.82
2019-05-07T10:53:44.590Z,1003.87
2019-05-07T10:54:56.848Z,1003.83
2019-05-07T10:55:45.689Z,1003.82
2019-05-07T10:56:44.655Z,1003.80
2019-05-07T10:57:44.676Z,1003.81
2019-05-07T10:58:44.694Z,1003.76
2019-05-07T10:59:44.717Z,1003.79
2019-05-07T11:00:44.742Z,1003.74
2019-05-07T11:01:44.761Z,1003.80
2019-05-07T11:02:44.782Z,1003.79
2019-05-07T11:03:44.805Z,1003.77
2019-05-07T11:04:45.924Z,1003.77
2019-05-07T11:05:44.849Z,1003.68
2019-05-07T11:06:44.877Z,1003.69
2019-05-07T11:07:44.891Z,1003.65
2019-05-07T11:08:44.916Z,1003.61
2019-05-07T11:09:44.941Z,1003.60
2019-05-07T11:10:44.961Z,1003.58
2019-05-07T11:11:44.978Z,1003.58
2019-05-07T11:12:44.996Z,1003.58
2019-05-07T11:13:45.018Z,1003.57
2019-05-07T11:14:45.044Z,1003.59
2019-05-07T11:15:45.067Z,1003.56
2019-05-07T11:16:45.093Z,1003.53
2019-05-07T11:17:45.113Z,1003.51
2019-05-07T11:18:45.132Z,1003.54
2019-05-07T11:19:45.149Z,1003.55
2019-05-07T11:20:50.098Z,1003.54
2019-05-07T11:21:45.200Z,1003.47
2019-05-07T11:22:45.216Z,1003.49
2019-05-07T11:23:45.245Z,1003.46
2019-05-07T11:24:45.262Z,1003.47
2019-05-07T11:25:45.280Z,1003.50
2019-05-07T11:26:45.301Z,1003.47
2019-05-07T11:27:45.331Z,1003.49
2019-05-07T11:28:45.343Z,1003.44
2019-05-07T11:29:45.366Z,1003.45
2019-05-07T11:30:45.386Z,1003.43
2019-05-07T11:31:45.417Z,1003.45
2019-05-07T11:32:45.434Z,1003.44
2019-05-07T11:33:45.454Z,1003.43
2019-05-07T11:34:45.475Z,1003.39
2019-05-07T11:35:45.498Z,1003.37
2019-05-07T11:36:45.522Z,1003.35
2019-05-07T11:37:45.542Z,1003.35
2019-05-07T11:38:45.579Z,1003.33
2019-05-07T11:39:45.586Z,1003.32
2019-05-07T11:40:45.605Z,1003.33
2019-05-07T11:41:45.628Z,1003.30
2019-05-07T11:42:45.647Z,1003.27
2019-05-07T11:43:45.669Z,1003.27
2019-05-07T11:44:45.693Z,1003.28
2019-05-07T11:45:45.722Z,1003.27
2019-05-07T11:46:45.735Z,1003.25
2019-05-07T11:47:45.765Z,1003.29
2019-05-07T11:48:45.793Z,1003.27
2019-05-07T11:49:45.826Z,1003.25
2019-05-07T11:50:45.825Z,1003.24
2019-05-07T11:51:45.852Z,1003.23
2019-05-07T11:52:45.871Z,1003.19
2019-05-07T11:53:45.891Z,1003.22
2019-05-07T11:54:45.912Z,1003.18
2019-05-07T11:55:45.935Z,1003.20
2019-05-07T11:56:45.954Z,1003.21
2019-05-07T11:57:45.977Z,1003.22
2019-05-07T11:58:45.998Z,1003.16
2019-05-07T11:59:46.021Z,1003.16
2019-05-07T12:00:46.040Z,1003.19
2019-05-07T12:01:47.660Z,1003.15
2019-05-07T12:02:47.320Z,1003.11
2019-05-07T12:03:46.107Z,1003.15
2019-05-07T12:04:46.129Z,1003.11
2019-05-07T12:05:46.154Z,1003.09